createdAt,value
2018-06-19T00:01:33.771Z,7.20
2018-06-19T00:04:02.209Z,7.60
2018-06-19T00:06:30.629Z,5.13
2018-06-19T00:08:59.311Z,6.03
2018-06-19T00:11:27.805Z,6.77
2018-06-19T00:13:56.361Z,6.90
2018-06-19T00:16:24.845Z,7.23
2018-06-19T00:18:55.893Z,7.10
2018-06-19T00:21:31.667Z,7.97
2018-06-19T00:24:00.149Z,7.60
2018-06-19T00:26:28.631Z,7.30
2018-06-19T00:28:57.280Z,6.97
2018-06-19T00:31:25.810Z,7.27
2018-06-19T00:33:54.252Z,7.77
2018-06-19T00:36:22.754Z,6.73
2018-06-19T00:38:51.664Z,5.90
2018-06-19T00:41:20.213Z,4.73
2018-06-19T00:43:48.718Z,6.33
2018-06-19T00:46:18.700Z,5.63
2018-06-19T00:48:47.116Z,7.43
2018-06-19T00:51:15.658Z,6.53
2018-06-19T00:53:44.087Z,5.63
2018-06-19T00:56:23.636Z,8.43
2018-06-19T00:58:52.110Z,8.93
2018-06-19T01:01:20.673Z,9.10
2018-06-19T01:03:49.101Z,7.87
2018-06-19T01:06:17.540Z,6.80
2018-06-19T01:08:46.002Z,6.50
2018-06-19T01:11:14.434Z,7.63
2018-06-19T01:13:42.890Z,7.10
2018-06-19T01:16:11.322Z,7.13
2018-06-19T01:18:39.786Z,8.97
2018-06-19T01:21:08.312Z,9.00
2018-06-19T01:23:36.748Z,10.97
2018-06-19T01:26:05.172Z,11.37
2018-06-19T01:28:33.699Z,11.00
2018-06-19T01:31:02.186Z,10.20
2018-06-19T01:33:30.644Z,9.13
2018-06-19T01:35:59.118Z,10.93
2018-06-19T01:38:27.554Z,11.53
2018-06-19T01:40:55.974Z,9.70
2018-06-19T01:43:24.534Z,11.53
2018-06-19T01:45:52.977Z,9.17
2018-06-19T01:48:21.398Z,10.90
2018-06-19T01:50:49.885Z,9.03
2018-06-19T01:53:18.383Z,8.27
2018-06-19T01:55:46.817Z,7.27
2018-06-19T01:58:15.242Z,8.70
2018-06-19T02:00:43.700Z,8.43
2018-06-19T02:03:12.132Z,8.80
2018-06-19T02:05:40.594Z,7.33
2018-06-19T02:08:09.014Z,8.63
2018-06-19T02:10:37.456Z,9.60
2018-06-19T02:13:06.273Z,8.93
2018-06-19T02:15:34.710Z,7.97
2018-06-19T02:18:03.218Z,9.13
2018-06-19T02:20:31.783Z,9.47
2018-06-19T02:22:59.931Z,9.20
2018-06-19T02:25:28.350Z,7.23
2018-06-19T02:27:56.919Z,8.50
2018-06-19T02:30:25.366Z,7.90
2018-06-19T02:32:53.814Z,8.83
2018-06-19T02:35:22.364Z,8.23
2018-06-19T02:37:51.470Z,9.17
2018-06-19T02:40:19.779Z,11.93
2018-06-19T02:42:48.221Z,8.67
2018-06-19T02:45:16.683Z,7.80
2018-06-19T02:47:45.106Z,8.03
2018-06-19T02:50:13.615Z,8.27
2018-06-19T02:52:42.121Z,10.53
2018-06-19T02:55:10.558Z,9.90
2018-06-19T02:57:39.033Z,10.03
2018-06-19T03:00:07.616Z,10.50
2018-06-19T03:02:36.105Z,11.10
2018-06-19T03:05:05.067Z,11.60
2018-06-19T03:07:33.541Z,8.33
2018-06-19T03:10:01.962Z,9.70
2018-06-19T03:12:30.405Z,9.87
2018-06-19T03:14:58.886Z,10.60
2018-06-19T03:17:27.304Z,11.40
2018-06-19T03:19:55.899Z,9.47
2018-06-19T03:22:24.462Z,9.70
2018-06-19T03:24:53.103Z,9.27
2018-06-19T03:27:21.579Z,10.47
2018-06-19T03:29:50.056Z,7.53
2018-06-19T03:32:18.591Z,6.70
2018-06-19T03:34:47.033Z,8.10
2018-06-19T03:37:15.476Z,8.10
2018-06-19T03:39:43.927Z,7.57
2018-06-19T03:42:12.379Z,7.57
2018-06-19T03:44:40.894Z,8.43
2018-06-19T03:47:09.317Z,10.53
2018-06-19T03:49:37.844Z,6.73
2018-06-19T03:52:06.305Z,11.10
2018-06-19T03:54:34.792Z,8.50
2018-06-19T03:57:03.298Z,10.13
2018-06-19T03:59:31.856Z,7.67
2018-06-19T04:02:00.288Z,9.30
2018-06-19T04:04:28.730Z,9.37
2018-06-19T04:06:57.170Z,7.87
2018-06-19T04:09:25.745Z,11.87
2018-06-19T04:11:54.281Z,7.40
2018-06-19T04:14:22.785Z,8.83
2018-06-19T04:16:51.216Z,6.60
2018-06-19T04:19:19.768Z,9.77
2018-06-19T04:21:48.210Z,10.47
2018-06-19T04:24:16.658Z,9.47
2018-06-19T04:26:45.316Z,10.07
2018-06-19T04:29:13.772Z,7.63
2018-06-19T04:31:42.368Z,8.60
2018-06-19T04:34:10.838Z,9.50
2018-06-19T04:36:39.391Z,8.00
2018-06-19T04:39:10.076Z,7.00
2018-06-19T04:41:38.512Z,9.27
2018-06-19T04:44:07.006Z,8.43
2018-06-19T04:46:35.711Z,11.07
2018-06-19T04:49:04.172Z,8.07
2018-06-19T04:51:32.644Z,8.67
2018-06-19T04:54:01.080Z,11.93
2018-06-19T04:56:29.662Z,8.83
2018-06-19T04:58:58.140Z,11.20
2018-06-19T05:01:26.690Z,9.03
2018-06-19T05:03:56.197Z,9.83
2018-06-19T05:06:24.786Z,10.63
2018-06-19T05:08:53.258Z,10.93
2018-06-19T05:11:21.687Z,8.60
2018-06-19T05:13:50.110Z,8.83
2018-06-19T05:16:18.556Z,8.17
2018-06-19T05:18:47.099Z,12.17
2018-06-19T05:21:16.102Z,8.47
2018-06-19T05:23:44.534Z,13.53
2018-06-19T05:26:13.064Z,11.70
2018-06-19T05:28:41.504Z,9.83
2018-06-19T05:31:09.951Z,7.40
2018-06-19T05:33:38.402Z,10.27
2018-06-19T05:36:06.850Z,9.50
2018-06-19T05:38:35.309Z,10.47
2018-06-19T05:41:03.802Z,10.60
2018-06-19T05:43:32.320Z,10.07
2018-06-19T05:46:00.509Z,9.97
2018-06-19T05:48:28.961Z,10.33
2018-06-19T05:50:57.410Z,8.83
2018-06-19T05:53:25.921Z,6.90
2018-06-19T05:55:54.368Z,9.97
2018-06-19T05:58:22.813Z,10.13
2018-06-19T06:00:51.263Z,9.80
2018-06-19T06:03:19.713Z,7.80
2018-06-19T06:05:48.295Z,12.00
2018-06-19T06:08:16.660Z,10.00
2018-06-19T06:10:45.090Z,10.90
2018-06-19T06:13:13.527Z,9.37
2018-06-19T06:15:42.296Z,7.23
2018-06-19T06:18:10.765Z,10.67
2018-06-19T06:20:39.177Z,9.30
2018-06-19T06:23:07.654Z,10.90
2018-06-19T06:25:36.111Z,9.30
2018-06-19T06:28:04.792Z,7.83
2018-06-19T06:30:33.262Z,9.90
2018-06-19T06:33:01.861Z,12.87
2018-06-19T06:35:30.316Z,8.53
2018-06-19T06:37:58.779Z,8.47
2018-06-19T06:40:27.215Z,9.23
2018-06-19T06:42:55.655Z,8.77
2018-06-19T06:45:24.104Z,9.57
2018-06-19T06:47:52.572Z,14.60
2018-06-19T06:50:21.044Z,11.70
2018-06-19T06:52:49.498Z,8.80
2018-06-19T06:55:17.993Z,6.67
2018-06-19T06:57:46.448Z,9.90
2018-06-19T07:00:15.006Z,9.73
2018-06-19T07:02:43.443Z,6.73
2018-06-19T07:05:11.974Z,7.90
2018-06-19T07:07:40.467Z,8.37
2018-06-19T07:10:08.936Z,7.93
2018-06-19T07:12:37.407Z,10.77
2018-06-19T07:15:05.854Z,8.03
2018-06-19T07:17:34.637Z,9.83
2018-06-19T07:20:03.245Z,9.17
2018-06-19T07:22:31.714Z,8.60
2018-06-19T07:25:00.297Z,7.33
2018-06-19T07:27:28.851Z,7.43
2018-06-19T07:29:57.293Z,10.03
2018-06-19T07:32:25.937Z,8.00
2018-06-19T07:34:54.380Z,7.97
2018-06-19T07:37:22.855Z,9.27
2018-06-19T07:39:51.441Z,7.63
2018-06-19T07:42:19.995Z,10.97
2018-06-19T07:44:48.431Z,11.27
2018-06-19T07:47:16.909Z,8.80
2018-06-19T07:49:45.376Z,8.60
2018-06-19T07:52:13.831Z,7.67
2018-06-19T07:54:42.305Z,6.87
2018-06-19T07:57:10.769Z,7.77
2018-06-19T07:59:39.256Z,8.27
2018-06-19T08:02:07.809Z,5.97
2018-06-19T08:04:36.272Z,6.97
2018-06-19T08:07:10.106Z,6.97
2018-06-19T08:09:39.637Z,9.60
2018-06-19T08:12:08.609Z,9.67
2018-06-19T08:14:37.546Z,9.77
2018-06-19T08:17:06.001Z,9.73
2018-06-19T08:19:34.550Z,7.70
2018-06-19T08:22:03.063Z,8.03
2018-06-19T08:24:31.780Z,10.23
2018-06-19T08:27:00.269Z,10.63
2018-06-19T08:29:28.734Z,10.97
2018-06-19T08:31:57.285Z,9.30
2018-06-19T08:34:25.798Z,11.27
2018-06-19T08:36:54.389Z,10.23
2018-06-19T08:39:22.914Z,10.97
2018-06-19T08:41:51.508Z,9.43
2018-06-19T08:44:19.970Z,11.57
2018-06-19T08:46:48.536Z,10.50
2018-06-19T08:49:17.042Z,10.37
2018-06-19T08:51:45.630Z,13.33
2018-06-19T08:54:14.101Z,12.07
2018-06-19T08:56:42.564Z,14.43
2018-06-19T08:59:11.142Z,11.40
2018-06-19T09:01:39.620Z,9.93
2018-06-19T09:04:08.166Z,9.10
2018-06-19T09:06:36.752Z,10.17
2018-06-19T09:09:07.880Z,10.43
2018-06-19T09:11:36.330Z,9.23
2018-06-19T09:14:04.858Z,9.47
2018-06-19T09:16:33.346Z,10.23
2018-06-19T09:19:01.958Z,8.90
2018-06-19T09:21:30.417Z,9.03
2018-06-19T09:23:58.900Z,9.97
2018-06-19T09:26:27.396Z,10.67
2018-06-19T09:28:55.946Z,9.90
2018-06-19T09:31:24.404Z,13.40
2018-06-19T09:33:53.256Z,10.10
2018-06-19T09:36:21.882Z,9.80
2018-06-19T09:38:50.489Z,9.10
2018-06-19T09:41:19.050Z,6.90
2018-06-19T09:43:47.665Z,9.73
2018-06-19T09:46:16.268Z,7.50
2018-06-19T09:48:44.765Z,9.17
2018-06-19T09:51:13.225Z,6.43
2018-06-19T09:53:41.809Z,5.83
2018-06-19T09:56:10.356Z,6.53
2018-06-19T09:58:38.871Z,5.87
2018-06-19T10:01:07.351Z,5.50
2018-06-19T10:03:36.204Z,5.70
2018-06-19T10:06:04.717Z,7.80
2018-06-19T10:08:33.169Z,8.27
2018-06-19T10:11:01.692Z,5.70
2018-06-19T10:13:30.139Z,7.47
2018-06-19T10:15:58.594Z,5.70
2018-06-19T10:18:27.101Z,5.67
2018-06-19T10:20:55.925Z,6.30
2018-06-19T10:23:24.403Z,7.20
2018-06-19T10:25:52.907Z,6.07
2018-06-19T10:28:21.450Z,6.27
2018-06-19T10:30:49.950Z,8.87
2018-06-19T10:33:18.469Z,5.80
2018-06-19T10:35:46.941Z,7.20
2018-06-19T10:38:15.450Z,5.10
2018-06-19T10:40:43.930Z,5.13
2018-06-19T10:43:12.386Z,5.90
2018-06-19T10:45:40.974Z,7.37
2018-06-19T10:48:09.546Z,6.57
2018-06-19T10:50:38.012Z,6.60
2018-06-19T10:53:06.249Z,7.37
2018-06-19T10:55:34.899Z,7.13
2018-06-19T10:58:03.458Z,6.30
2018-06-19T11:00:31.932Z,5.87
2018-06-19T11:03:00.444Z,6.53
2018-06-19T11:05:29.026Z,9.43
2018-06-19T11:07:57.591Z,5.97
2018-06-19T11:10:26.084Z,6.73
2018-06-19T11:12:54.565Z,5.23
2018-06-19T11:15:23.041Z,4.27
2018-06-19T11:17:51.653Z,4.73
2018-06-19T11:20:20.108Z,4.13
2018-06-19T11:22:48.557Z,4.67
2018-06-19T11:25:17.006Z,5.03
2018-06-19T11:27:45.456Z,5.10
2018-06-19T11:30:14.027Z,6.67
2018-06-19T11:32:42.522Z,6.03
2018-06-19T11:35:11.066Z,4.70
2018-06-19T11:37:39.583Z,4.63
2018-06-19T11:40:08.146Z,5.20
2018-06-19T11:42:36.594Z,4.40
2018-06-19T11:45:05.140Z,4.20
2018-06-19T11:47:33.668Z,5.10
2018-06-19T11:50:02.159Z,4.33
2018-06-19T11:52:30.678Z,4.27
2018-06-19T11:54:59.232Z,4.40
2018-06-19T11:57:28.059Z,4.70
2018-06-19T11:59:56.865Z,4.57
2018-06-19T12:02:25.426Z,5.00
2018-06-19T12:04:53.877Z,6.43
2018-06-19T12:07:22.449Z,4.93
2018-06-19T12:09:50.991Z,4.60
2018-06-19T12:12:19.432Z,5.33
2018-06-19T12:14:47.658Z,4.50
2018-06-19T12:17:16.549Z,4.30
2018-06-19T12:19:45.514Z,4.50
2018-06-19T12:22:14.094Z,4.43
2018-06-19T12:24:42.708Z,4.53
2018-06-19T12:27:11.156Z,4.30
2018-06-19T12:29:39.644Z,5.20
2018-06-19T12:32:08.111Z,4.33
2018-06-19T12:34:36.732Z,5.77
2018-06-19T12:37:05.276Z,4.43
2018-06-19T12:39:33.429Z,5.20
2018-06-19T12:42:01.928Z,4.20
2018-06-19T12:44:30.561Z,7.33
2018-06-19T12:46:59.077Z,5.10
2018-06-19T12:50:39.014Z,6.43
2018-06-19T12:53:19.685Z,5.40
2018-06-19T12:56:00.242Z,6.90
2018-06-19T12:58:28.743Z,5.30
2018-06-19T13:00:57.202Z,8.53
2018-06-19T13:03:36.877Z,6.60
2018-06-19T13:06:16.679Z,4.10
2018-06-19T13:08:45.138Z,5.87
2018-06-19T13:11:13.737Z,4.67
2018-06-19T13:13:47.483Z,3.93
2018-06-19T13:16:27.320Z,4.20
2018-06-19T13:19:07.150Z,5.60
2018-06-19T13:21:35.764Z,6.00
2018-06-19T13:24:04.390Z,4.67
2018-06-19T13:26:32.900Z,7.77
2018-06-19T13:29:38.857Z,7.13
2018-06-19T13:32:07.397Z,7.50
2018-06-19T13:34:36.693Z,6.03
2018-06-19T13:37:05.651Z,6.00
2018-06-19T13:39:34.756Z,5.27
2018-06-19T13:42:15.432Z,5.33
2018-06-19T13:44:54.165Z,5.37
2018-06-19T13:47:22.660Z,5.73
2018-06-19T13:49:51.281Z,6.70
2018-06-19T13:52:19.665Z,5.00
2018-06-19T13:54:48.258Z,4.20
2018-06-19T13:57:34.372Z,6.60
2018-06-19T14:00:05.705Z,5.17
2018-06-19T14:02:34.236Z,7.40
2018-06-19T14:05:03.382Z,5.27
2018-06-19T14:07:33.241Z,4.93
2018-06-19T14:10:17.785Z,5.90
2018-06-19T14:12:51.256Z,4.13
2018-06-19T14:15:20.658Z,4.87
2018-06-19T14:17:49.213Z,4.57
2018-06-19T14:20:17.701Z,4.00
2018-06-19T14:22:46.270Z,4.67
2018-06-19T14:25:15.090Z,4.50
2018-06-19T14:27:43.678Z,4.70
2018-06-19T14:30:12.308Z,4.83
2018-06-19T14:32:40.786Z,5.40
2018-06-19T14:35:09.535Z,4.77
2018-06-19T14:37:38.047Z,4.20
2018-06-19T14:40:06.682Z,4.87
2018-06-19T14:42:35.429Z,4.57
2018-06-19T14:45:04.278Z,4.63
2018-06-19T14:47:32.720Z,5.90
2018-06-19T14:50:01.179Z,4.43
2018-06-19T14:52:29.633Z,6.10
2018-06-19T14:54:58.082Z,4.87
2018-06-19T14:57:26.543Z,4.63
2018-06-19T14:59:55.028Z,7.33
2018-06-19T15:02:23.588Z,5.83
2018-06-19T15:04:52.164Z,5.93
2018-06-19T15:07:20.635Z,5.40
2018-06-19T15:09:49.113Z,4.73
2018-06-19T15:12:17.580Z,7.20
2018-06-19T15:14:46.059Z,5.23
2018-06-19T15:17:14.264Z,6.10
2018-06-19T15:19:42.752Z,6.07
2018-06-19T15:22:11.246Z,4.87
2018-06-19T15:24:39.682Z,4.70
2018-06-19T15:27:08.183Z,3.97
2018-06-19T15:29:36.786Z,7.47
2018-06-19T15:32:05.232Z,4.93
2018-06-19T15:34:40.006Z,4.47
2018-06-19T15:37:08.452Z,6.93
2018-06-19T15:39:36.909Z,6.97
2018-06-19T15:42:06.069Z,6.23
2018-06-19T15:44:34.634Z,5.47
2018-06-19T15:47:03.338Z,5.27
2018-06-19T15:49:31.866Z,6.67
2018-06-19T15:52:00.307Z,4.10
2018-06-19T15:54:28.864Z,4.90
2018-06-19T15:56:57.428Z,4.63
2018-06-19T15:59:25.976Z,3.50
2018-06-19T16:01:54.953Z,5.33
2018-06-19T16:04:23.407Z,4.20
2018-06-19T16:06:51.950Z,6.20
2018-06-19T16:09:20.421Z,4.37
2018-06-19T16:11:48.874Z,4.23
2018-06-19T16:14:17.382Z,5.93
2018-06-19T16:16:45.844Z,6.90
2018-06-19T16:19:14.427Z,4.10
2018-06-19T16:21:42.984Z,3.93
2018-06-19T16:24:11.576Z,5.07
2018-06-19T16:26:40.078Z,3.87
2018-06-19T16:29:08.525Z,3.80
2018-06-19T16:31:36.999Z,5.70
2018-06-19T16:34:05.496Z,4.27
2018-06-19T16:36:33.953Z,4.13
2018-06-19T16:39:02.449Z,5.33
2018-06-19T16:41:31.012Z,4.03
2018-06-19T16:43:59.224Z,10.47
2018-06-19T16:46:27.715Z,5.23
2018-06-19T16:48:56.155Z,4.53
2018-06-19T16:51:24.590Z,4.43
2018-06-19T16:53:53.026Z,4.27
2018-06-19T16:56:21.481Z,5.23
2018-06-19T16:58:50.115Z,5.83
2018-06-19T17:01:18.592Z,3.63
2018-06-19T17:03:47.249Z,3.60
2018-06-19T17:06:15.871Z,4.00
2018-06-19T17:08:44.343Z,3.37
2018-06-19T17:11:12.777Z,3.87
2018-06-19T17:13:41.235Z,3.30
2018-06-19T17:16:09.801Z,4.20
2018-06-19T17:18:38.249Z,4.03
2018-06-19T17:21:06.737Z,4.33
2018-06-19T17:23:35.283Z,3.10
2018-06-19T17:26:03.511Z,4.27
2018-06-19T17:28:32.081Z,3.23
2018-06-19T17:31:00.635Z,3.43
2018-06-19T17:33:29.243Z,4.80
2018-06-19T17:35:57.691Z,3.80
2018-06-19T17:38:26.169Z,3.07
2018-06-19T17:40:54.635Z,3.60
2018-06-19T17:43:23.146Z,3.83
2018-06-19T17:45:51.720Z,3.27
2018-06-19T17:48:20.179Z,4.97
2018-06-19T17:50:48.692Z,4.23
2018-06-19T17:53:17.151Z,4.60
2018-06-19T17:55:45.626Z,4.53
2018-06-19T17:58:14.193Z,3.10
2018-06-19T18:00:42.897Z,4.40
2018-06-19T18:03:14.592Z,4.10
2018-06-19T18:05:43.094Z,4.47
2018-06-19T18:08:11.625Z,3.37
2018-06-19T18:10:40.243Z,3.50
2018-06-19T18:13:08.853Z,4.40
2018-06-19T18:15:37.500Z,3.37
2018-06-19T18:18:05.575Z,5.90
2018-06-19T18:20:34.152Z,3.33
2018-06-19T18:23:02.673Z,4.47
2018-06-19T18:25:31.264Z,5.57
2018-06-19T18:27:59.842Z,8.37
2018-06-19T18:30:28.311Z,6.57
2018-06-19T18:32:56.811Z,6.63
2018-06-19T18:35:25.525Z,4.77
2018-06-19T18:37:54.021Z,5.07
2018-06-19T18:40:22.739Z,7.13
2018-06-19T18:42:51.304Z,6.67
2018-06-19T18:45:19.762Z,5.73
2018-06-19T18:47:48.393Z,3.63
2018-06-19T18:50:16.836Z,3.77
2018-06-19T18:52:45.460Z,6.00
2018-06-19T18:55:13.792Z,3.80
2018-06-19T18:57:42.269Z,3.20
2018-06-19T19:00:10.823Z,8.23
2018-06-19T19:02:39.272Z,3.43
2018-06-19T19:05:07.822Z,3.77
2018-06-19T19:07:36.490Z,3.23
2018-06-19T19:10:10.254Z,4.10
2018-06-19T19:12:38.771Z,4.00
2018-06-19T19:15:12.380Z,4.73
2018-06-19T19:17:46.359Z,3.80
2018-06-19T19:20:14.640Z,2.70
2018-06-19T19:22:43.222Z,4.33
2018-06-19T19:25:11.345Z,3.77
2018-06-19T19:27:45.263Z,3.23
2018-06-19T19:30:13.880Z,3.37
2018-06-19T19:32:42.009Z,2.40
2018-06-19T19:35:10.500Z,3.10
2018-06-19T19:37:44.365Z,3.27
2018-06-19T19:40:12.941Z,3.30
2018-06-19T19:42:41.403Z,5.40
2018-06-19T19:45:09.856Z,5.47
2018-06-19T19:47:43.657Z,4.97
2018-06-19T19:50:12.116Z,4.77
2018-06-19T19:52:40.605Z,6.23
2018-06-19T19:55:09.129Z,4.97
2018-06-19T19:57:42.958Z,4.90
2018-06-19T20:00:15.717Z,3.33
2018-06-19T20:02:44.197Z,5.63
2018-06-19T20:05:12.631Z,3.10
2018-06-19T20:07:41.751Z,3.60
2018-06-19T20:10:10.257Z,4.43
2018-06-19T20:12:38.702Z,3.07
2018-06-19T20:15:07.165Z,3.50
2018-06-19T20:17:35.635Z,3.37
2018-06-19T20:20:05.375Z,3.87
2018-06-19T20:22:33.953Z,2.90
2018-06-19T20:25:02.106Z,2.37
2018-06-19T20:27:30.558Z,2.37
2018-06-19T20:29:59.066Z,3.80
2018-06-19T20:32:27.353Z,2.10
2018-06-19T20:34:56.001Z,3.00
2018-06-19T20:37:24.477Z,1.93
2018-06-19T20:39:52.947Z,5.53
2018-06-19T20:42:21.451Z,2.43
2018-06-19T20:44:50.078Z,2.43
2018-06-19T20:47:18.505Z,2.50
2018-06-19T20:49:47.036Z,3.97
2018-06-19T20:52:15.503Z,3.63
2018-06-19T20:54:43.977Z,3.77
2018-06-19T20:57:12.525Z,2.87
2018-06-19T20:59:40.981Z,2.80
2018-06-19T21:02:09.467Z,5.23
2018-06-19T21:04:38.022Z,2.73
2018-06-19T21:07:06.649Z,3.77
2018-06-19T21:09:35.139Z,3.77
2018-06-19T21:12:03.588Z,3.70
2018-06-19T21:14:32.306Z,3.43
2018-06-19T21:17:00.805Z,3.67
2018-06-19T21:19:29.652Z,3.93
2018-06-19T21:21:58.101Z,4.40
2018-06-19T21:24:26.603Z,3.90
2018-06-19T21:26:55.085Z,4.47
2018-06-19T21:29:23.605Z,3.23
2018-06-19T21:31:52.125Z,3.47
2018-06-19T21:34:20.564Z,3.67
2018-06-19T21:36:49.032Z,4.37
2018-06-19T21:39:17.610Z,4.80
2018-06-19T21:41:46.033Z,2.90
2018-06-19T21:44:14.609Z,4.20
2018-06-19T21:46:43.064Z,5.73
2018-06-19T21:49:11.660Z,3.40
2018-06-19T21:51:40.129Z,5.23
2018-06-19T21:54:08.582Z,3.73
2018-06-19T21:56:37.022Z,4.70
2018-06-19T21:59:05.484Z,3.73
2018-06-19T22:01:33.926Z,7.17
2018-06-19T22:04:02.184Z,4.37
2018-06-19T22:06:30.702Z,4.80
2018-06-19T22:08:59.300Z,4.10
2018-06-19T22:11:27.778Z,3.90
2018-06-19T22:13:56.260Z,3.80
2018-06-19T22:16:24.712Z,3.80
2018-06-19T22:18:53.217Z,4.33
2018-06-19T22:21:21.682Z,4.27
2018-06-19T22:23:50.192Z,4.67
2018-06-19T22:26:18.640Z,3.70
2018-06-19T22:28:47.073Z,4.60
2018-06-19T22:31:15.533Z,6.57
2018-06-19T22:33:43.966Z,4.70
2018-06-19T22:36:12.461Z,4.33
2018-06-19T22:38:40.922Z,4.40
2018-06-19T22:41:09.390Z,3.70
2018-06-19T22:43:37.891Z,5.73
2018-06-19T22:46:06.349Z,3.70
2018-06-19T22:48:34.873Z,3.70
2018-06-19T22:51:03.337Z,4.60
2018-06-19T22:53:31.766Z,5.33
2018-06-19T22:56:00.335Z,6.60
2018-06-19T22:58:28.809Z,4.27
2018-06-19T23:00:57.417Z,5.70
2018-06-19T23:03:25.859Z,5.10
2018-06-19T23:05:54.313Z,6.33
2018-06-19T23:08:23.171Z,5.37
2018-06-19T23:10:51.599Z,3.37
2018-06-19T23:13:20.067Z,4.90
2018-06-19T23:15:48.581Z,3.60
2018-06-19T23:18:17.033Z,3.93
2018-06-19T23:20:45.481Z,4.53
2018-06-19T23:23:13.937Z,4.00
2018-06-19T23:25:42.148Z,4.67
2018-06-19T23:28:10.589Z,4.40
2018-06-19T23:30:39.036Z,3.60
2018-06-19T23:33:07.567Z,4.40
2018-06-19T23:35:36.014Z,3.70
2018-06-19T23:38:04.512Z,5.10
2018-06-19T23:40:32.973Z,4.00
2018-06-19T23:43:01.425Z,3.70
2018-06-19T23:45:29.953Z,3.40
2018-06-19T23:47:58.410Z,5.77
2018-06-19T23:50:26.934Z,4.70
2018-06-19T23:52:55.381Z,3.40
2018-06-19T23:55:23.815Z,3.40
2018-06-19T23:57:52.270Z,3.30
